Time;durP1;ratioP1;P1;durP2;ratioP2;P2;SDS_P1;SDS_P2;PMS_P1;PMS_P2;Temp;Humidity;BMP_temperature;BMP_pressure;BME280_temperature;BME280_humidity;BME280_pressure;Samples;Min_cycle;Max_cycle;Signal;HPM_P1;HPM_P2
2023/10/23 00:02:06;;;;;;;;;;;;;;;16.45;nan;101267.63;4970116;28;19918;-92
2023/10/23 00:04:33;;;;;;;;;;;;;;;16.45;nan;101271.13;4974726;28;19965;-91
2023/10/23 00:06:59;;;;;;;;;;;;;;;16.48;nan;101267.88;4970536;28;19925;-93
2023/10/23 00:09:26;;;;;;;;;;;;;;;16.50;nan;101265.72;4969936;28;20020;-92
2023/10/23 00:11:52;;;;;;;;;;;;;;;16.51;nan;101269.22;4969704;28;20012;-91
2023/10/23 00:14:20;;;;;;;;;;;;;;;16.52;nan;101268.97;4969005;28;20299;-91
2023/10/23 00:16:45;;;;;;;;;;;;;;;16.52;nan;101268.97;4970902;28;19922;-91
2023/10/23 00:19:13;;;;;;;;;;;;;;;16.56;nan;101267.34;4971492;28;20398;-92
2023/10/23 00:21:42;;;;;;;;;;;;;;;16.56;nan;101278.16;4970058;28;19934;-94
2023/10/23 00:24:11;;;;;;;;;;;;;;;16.55;nan;101278.44;4976775;28;20048;-91
2023/10/23 00:26:37;;;;;;;;;;;;;;;16.58;nan;101286.81;4966888;28;20008;-91
2023/10/23 00:29:08;;;;;;;;;;;;;;;16.62;nan;101279.75;4967982;28;20390;-92
2023/10/23 00:31:34;;;;;;;;;;;;;;;16.63;nan;101278.66;4971790;28;19928;-92
2023/10/23 00:34:01;;;;;;;;;;;;;;;16.62;nan;101279.75;4970289;28;19922;-93
2023/10/23 00:36:27;;;;;;;;;;;;;;;16.59;nan;101280.31;4974216;28;19976;-93
2023/10/23 00:38:55;;;;;;;;;;;;;;;16.57;nan;101281.66;4975803;28;19962;-93
2023/10/23 00:41:25;;;;;;;;;;;;;;;16.56;nan;101282.75;4967775;28;20650;-92
2023/10/23 00:43:55;;;;;;;;;;;;;;;16.53;nan;101288.72;4972842;28;19921;-92
2023/10/23 00:46:20;;;;;;;;;;;;;;;16.51;nan;101283.56;4967909;28;20005;-94
2023/10/23 00:48:49;;;;;;;;;;;;;;;16.51;nan;101275.44;4972208;28;20913;-93
2023/10/23 00:51:19;;;;;;;;;;;;;;;16.53;nan;101286.81;4972097;28;19941;-92
2023/10/23 00:53:48;;;;;;;;;;;;;;;16.55;nan;101283.84;4968826;28;19972;-92
2023/10/23 00:56:25;;;;;;;;;;;;;;;16.57;nan;101292.50;4971225;28;20009;-92
2023/10/23 00:58:54;;;;;;;;;;;;;;;16.56;nan;101286.28;4969624;28;19922;-93
2023/10/23 01:01:21;;;;;;;;;;;;;;;16.53;nan;101286.00;4969535;28;20379;-91
2023/10/23 01:03:50;;;;;;;;;;;;;;;16.52;nan;101273.56;4972309;28;19932;-92
2023/10/23 01:06:15;;;;;;;;;;;;;;;16.55;nan;101279.25;4970131;28;19918;-93
2023/10/23 01:08:42;;;;;;;;;;;;;;;16.58;nan;101275.16;4968839;28;20403;-92
2023/10/23 01:11:09;;;;;;;;;;;;;;;16.63;nan;101281.38;4965944;28;20450;-92
2023/10/23 01:13:36;;;;;;;;;;;;;;;16.65;nan;101282.97;4971907;28;19975;-93
2023/10/23 01:16:04;;;;;;;;;;;;;;;16.67;nan;101284.34;4969546;28;19953;-91
2023/10/23 01:18:31;;;;;;;;;;;;;;;16.68;nan;101290.56;4972472;28;19918;-92
2023/10/23 01:21:05;;;;;;;;;;;;;;;16.70;nan;101297.34;4971091;28;19926;-92
2023/10/23 01:23:54;;;;;;;;;;;;;;;16.71;nan;101295.47;4971781;28;20003;-92
2023/10/23 01:26:23;;;;;;;;;;;;;;;16.74;nan;101294.91;4969714;28;19998;-93
2023/10/23 01:28:51;;;;;;;;;;;;;;;16.78;nan;101295.97;4959750;28;20212;-92
2023/10/23 01:31:37;;;;;;;;;;;;;;;16.80;nan;101301.91;4973241;28;19918;-91
2023/10/23 01:34:05;;;;;;;;;;;;;;;16.82;nan;101299.72;4970864;28;19926;-92
2023/10/23 01:36:35;;;;;;;;;;;;;;;16.84;nan;101300.25;4970864;28;19945;-92
2023/10/23 01:39:02;;;;;;;;;;;;;;;16.84;nan;101292.97;4975352;28;20064;-93
2023/10/23 01:41:29;;;;;;;;;;;;;;;16.85;nan;101291.06;4976677;28;19922;-93
2023/10/23 01:43:57;;;;;;;;;;;;;;;16.87;nan;101291.59;4975817;28;19922;-92
2023/10/23 01:46:33;;;;;;;;;;;;;;;16.86;nan;101289.97;4974467;28;19918;-93
2023/10/23 01:48:59;;;;;;;;;;;;;;;16.84;nan;101298.38;4974438;28;19921;-93
2023/10/23 01:51:24;;;;;;;;;;;;;;;16.84;nan;101294.84;4974816;28;20108;-92
2023/10/23 01:53:52;;;;;;;;;;;;;;;16.85;nan;101294.56;4973197;28;19925;-92
2023/10/23 01:56:18;;;;;;;;;;;;;;;16.84;nan;101289.44;4974072;28;20132;-93
2023/10/23 01:58:43;;;;;;;;;;;;;;;16.82;nan;101291.63;4977098;28;20022;-92
2023/10/23 02:01:19;;;;;;;;;;;;;;;16.82;nan;101299.72;4971466;28;19926;-92
2023/10/23 02:03:46;;;;;;;;;;;;;;;16.84;nan;101297.56;4974430;28;19929;-92
2023/10/23 02:06:13;;;;;;;;;;;;;;;16.85;nan;101299.19;4976100;28;19929;-92
2023/10/23 02:08:42;;;;;;;;;;;;;;;16.85;nan;101299.19;4974071;28;20274;-92
2023/10/23 02:11:09;;;;;;;;;;;;;;;16.87;nan;101299.72;4974685;28;19940;-92
2023/10/23 02:13:36;;;;;;;;;;;;;;;16.87;nan;101297.81;4975189;28;19925;-92
2023/10/23 02:16:01;;;;;;;;;;;;;;;16.86;nan;101298.09;4969567;28;20386;-93
2023/10/23 02:18:30;;;;;;;;;;;;;;;16.88;nan;101299.47;4979909;28;19965;-93
2023/10/23 02:20:59;;;;;;;;;;;;;;;16.87;nan;101303.22;4977476;28;19983;-92
2023/10/23 02:23:24;;;;;;;;;;;;;;;16.84;nan;101301.06;4975454;28;19972;-92
2023/10/23 02:25:51;;;;;;;;;;;;;;;16.82;nan;101300.53;4966460;28;19969;-94
2023/10/23 02:28:17;;;;;;;;;;;;;;;16.82;nan;101308.66;4978164;28;19933;-93
2023/10/23 02:30:46;;;;;;;;;;;;;;;16.83;nan;101306.75;4975424;28;19926;-92
2023/10/23 02:33:14;;;;;;;;;;;;;;;16.79;nan;101308.41;4974623;28;20016;-93
2023/10/23 02:35:41;;;;;;;;;;;;;;;16.75;nan;101315.47;4973975;28;19932;-92
2023/10/23 02:38:12;;;;;;;;;;;;;;;16.73;nan;101323.88;4977213;28;20296;-93
2023/10/23 02:40:38;;;;;;;;;;;;;;;16.66;nan;101325.19;4973385;28;20220;-92
2023/10/23 02:43:03;;;;;;;;;;;;;;;16.60;nan;101329.81;4973474;28;19918;-91
2023/10/23 02:45:32;;;;;;;;;;;;;;;16.55;nan;101322.53;4973678;28;19973;-93
2023/10/23 02:47:58;;;;;;;;;;;;;;;16.51;nan;101331.44;4976448;28;19921;-93
2023/10/23 02:50:26;;;;;;;;;;;;;;;16.46;nan;101321.44;4969045;28;20430;-92
2023/10/23 02:52:52;;;;;;;;;;;;;;;16.42;nan;101328.47;4974620;28;19945;-93
2023/10/23 02:55:20;;;;;;;;;;;;;;;16.38;nan;101338.22;4976773;28;19968;-93
2023/10/23 02:57:46;;;;;;;;;;;;;;;16.34;nan;101334.47;4970983;28;19922;-93
2023/10/23 03:00:13;;;;;;;;;;;;;;;16.31;nan;101338.50;4975779;28;19936;-92
2023/10/23 03:02:49;;;;;;;;;;;;;;;16.30;nan;101346.88;4978096;28;19926;-93
2023/10/23 03:05:16;;;;;;;;;;;;;;;16.29;nan;101356.88;4974873;28;20005;-92
2023/10/23 03:07:42;;;;;;;;;;;;;;;16.28;nan;101354.44;4973721;28;20141;-93
2023/10/23 03:10:09;;;;;;;;;;;;;;;16.27;nan;101347.44;4971462;28;19918;-93
2023/10/23 03:12:37;;;;;;;;;;;;;;;16.27;nan;101352.84;4971271;28;19922;-91
2023/10/23 03:15:03;;;;;;;;;;;;;;;16.23;nan;101357.97;4971221;28;19934;-92
2023/10/23 03:17:34;;;;;;;;;;;;;;;16.21;nan;101356.63;4969522;28;19932;-91
2023/10/23 03:19:59;;;;;;;;;;;;;;;16.19;nan;101353.38;4974475;28;20290;-92
2023/10/23 03:22:26;;;;;;;;;;;;;;;16.21;nan;101364.75;4972823;28;19937;-92
2023/10/23 03:24:53;;;;;;;;;;;;;;;16.23;nan;101360.69;4976676;28;19929;-91
2023/10/23 03:27:21;;;;;;;;;;;;;;;16.24;nan;101359.59;4971462;28;19918;-92
2023/10/23 03:29:49;;;;;;;;;;;;;;;16.25;nan;101360.41;4970846;28;20008;-91
2023/10/23 03:32:16;;;;;;;;;;;;;;;16.25;nan;101363.13;4971472;28;19926;-93
2023/10/23 03:34:54;;;;;;;;;;;;;;;16.21;nan;101368.25;4975873;28;19925;-92
2023/10/23 03:37:22;;;;;;;;;;;;;;;16.19;nan;101372.31;4973024;28;19998;-93
2023/10/23 03:39:53;;;;;;;;;;;;;;;16.15;nan;101376.63;4971819;28;20068;-93
2023/10/23 03:42:22;;;;;;;;;;;;;;;16.10;nan;101374.72;4973756;28;19921;-92
2023/10/23 03:44:48;;;;;;;;;;;;;;;16.09;nan;101375.00;4976791;28;19929;-93
2023/10/23 03:47:16;;;;;;;;;;;;;;;16.05;nan;101382.03;4971831;28;19922;-93
2023/10/23 03:49:43;;;;;;;;;;;;;;;16.00;nan;101378.25;4975779;28;19918;-93
2023/10/23 03:52:15;;;;;;;;;;;;;;;15.94;nan;101378.50;4972834;28;19918;-92
2023/10/23 03:54:43;;;;;;;;;;;;;;;15.91;nan;101377.13;4971647;28;19934;-92
2023/10/23 03:57:10;;;;;;;;;;;;;;;15.91;nan;101377.13;4970034;28;20287;-91
2023/10/23 03:59:40;;;;;;;;;;;;;;;15.88;nan;101372.28;4972341;28;20281;-91
2023/10/23 04:02:06;;;;;;;;;;;;;;;15.85;nan;101372.81;4973608;28;19999;-93
2023/10/23 04:04:33;;;;;;;;;;;;;;;15.81;nan;101370.94;4974875;28;19918;-93
2023/10/23 04:07:00;;;;;;;;;;;;;;;15.79;nan;101378.47;4973390;28;19945;-92
2023/10/23 04:09:30;;;;;;;;;;;;;;;15.74;nan;101381.16;4972714;28;20017;-94
2023/10/23 04:11:56;;;;;;;;;;;;;;;15.70;nan;101380.88;4972300;28;19976;-92
2023/10/23 04:14:22;;;;;;;;;;;;;;;15.67;nan;101378.72;4970314;28;20315;-93
2023/10/23 04:16:48;;;;;;;;;;;;;;;15.65;nan;101379.00;4974957;28;20013;-92
2023/10/23 04:19:16;;;;;;;;;;;;;;;15.64;nan;101381.97;4972704;28;19921;-92
2023/10/23 04:21:45;;;;;;;;;;;;;;;15.62;nan;101374.13;4974272;28;19925;-92
2023/10/23 04:24:13;;;;;;;;;;;;;;;15.57;nan;101375.94;4972830;28;20077;-92
2023/10/23 04:26:41;;;;;;;;;;;;;;;15.55;nan;101383.50;4972893;28;20298;-92
2023/10/23 04:29:17;;;;;;;;;;;;;;;15.53;nan;101377.56;4973260;28;19925;-93
2023/10/23 04:31:44;;;;;;;;;;;;;;;15.50;nan;101387.03;4971099;28;19922;-93
2023/10/23 04:34:12;;;;;;;;;;;;;;;15.50;nan;101391.59;4971969;28;19934;-92
2023/10/23 04:36:41;;;;;;;;;;;;;;;15.49;nan;101390.00;4974687;28;19922;-92
2023/10/23 04:39:11;;;;;;;;;;;;;;;15.46;nan;101387.81;4969132;28;19918;-91
2023/10/23 04:41:38;;;;;;;;;;;;;;;15.45;nan;101389.72;4968960;28;19926;-92
2023/10/23 04:44:05;;;;;;;;;;;;;;;15.42;nan;101388.31;4972819;28;19922;-91
2023/10/23 04:46:32;;;;;;;;;;;;;;;15.42;nan;101401.00;4970030;28;19925;-92
2023/10/23 04:49:01;;;;;;;;;;;;;;;15.41;nan;101394.81;4970754;28;19922;-91
2023/10/23 04:51:32;;;;;;;;;;;;;;;15.40;nan;101395.06;4974356;28;20679;-92
2023/10/23 04:53:57;;;;;;;;;;;;;;;15.38;nan;101391.81;4972325;28;19952;-93
2023/10/23 04:56:26;;;;;;;;;;;;;;;15.39;nan;101398.84;4969018;28;20000;-92
2023/10/23 04:58:54;;;;;;;;;;;;;;;15.39;nan;101396.97;4970616;28;20017;-92
2023/10/23 05:01:22;;;;;;;;;;;;;;;15.40;nan;101403.16;4971997;28;19994;-90
2023/10/23 05:03:48;;;;;;;;;;;;;;;15.40;nan;101409.38;4970988;28;20287;-90
2023/10/23 05:06:16;;;;;;;;;;;;;;;15.41;nan;101410.19;4972832;28;19930;-92
2023/10/23 05:08:48;;;;;;;;;;;;;;;15.42;nan;101412.63;4971597;28;20406;-92
2023/10/23 05:11:14;;;;;;;;;;;;;;;15.42;nan;101411.81;4969197;28;20378;-91
2023/10/23 05:13:42;;;;;;;;;;;;;;;15.42;nan;101422.63;4973529;28;19973;-91
2023/10/23 05:16:07;;;;;;;;;;;;;;;15.43;nan;101421.53;4971610;28;19961;-92
2023/10/23 05:18:34;;;;;;;;;;;;;;;15.45;nan;101424.00;4974763;28;20284;-92
2023/10/23 05:21:07;;;;;;;;;;;;;;;15.46;nan;101425.63;4973691;28;20409;-92
2023/10/23 05:23:33;;;;;;;;;;;;;;;15.42;nan;101428.84;4974408;28;19926;-91
2023/10/23 05:26:01;;;;;;;;;;;;;;;15.43;nan;101426.94;4977741;28;19929;-93
2023/10/23 05:28:26;;;;;;;;;;;;;;;15.39;nan;101423.97;4973944;28;20323;-92
2023/10/23 05:30:52;;;;;;;;;;;;;;;15.34;nan;101426.66;4974456;28;19918;-90
2023/10/23 05:33:19;;;;;;;;;;;;;;;15.32;nan;101428.00;4976582;28;19918;-91
2023/10/23 05:35:45;;;;;;;;;;;;;;;15.28;nan;101429.59;4974510;28;19926;-92
2023/10/23 05:38:11;;;;;;;;;;;;;;;15.25;nan;101439.00;4976001;28;20291;-92
2023/10/23 05:40:39;;;;;;;;;;;;;;;15.20;nan;101444.38;4975757;28;19936;-94
2023/10/23 05:43:06;;;;;;;;;;;;;;;15.15;nan;101438.97;4976643;28;19922;-93
2023/10/23 05:45:35;;;;;;;;;;;;;;;15.14;nan;101440.03;4975817;28;20104;-94
2023/10/23 05:48:01;;;;;;;;;;;;;;;15.13;nan;101453.81;4975421;28;19922;-94
2023/10/23 05:50:27;;;;;;;;;;;;;;;15.14;nan;101437.34;4974904;28;19918;-94
2023/10/23 05:52:52;;;;;;;;;;;;;;;15.15;nan;101449.75;4976289;28;20008;-95
2023/10/23 05:55:18;;;;;;;;;;;;;;;15.16;nan;101455.97;4963719;28;20002;-95
2023/10/23 05:57:43;;;;;;;;;;;;;;;15.18;nan;101453.81;4980111;28;20452;-95
2023/10/23 06:00:10;;;;;;;;;;;;;;;15.19;nan;101461.66;4975320;28;19965;-94
2023/10/23 06:02:36;;;;;;;;;;;;;;;15.22;nan;101461.13;4977801;28;19957;-94
2023/10/23 06:05:04;;;;;;;;;;;;;;;15.23;nan;101468.16;4976784;28;19922;-95
2023/10/23 06:07:29;;;;;;;;;;;;;;;15.21;nan;101469.50;4973724;28;20200;-93
2023/10/23 06:09:58;;;;;;;;;;;;;;;15.21;nan;101473.00;4975159;28;20381;-93
2023/10/23 06:12:23;;;;;;;;;;;;;;;15.23;nan;101472.75;4975468;28;19933;-94
2023/10/23 06:14:49;;;;;;;;;;;;;;;15.21;nan;101470.31;4974884;28;20321;-93
2023/10/23 06:17:17;;;;;;;;;;;;;;;15.24;nan;101468.97;4973562;28;19922;-94
2023/10/23 06:19:52;;;;;;;;;;;;;;;15.26;nan;101475.75;4973941;28;19937;-93
2023/10/23 06:22:22;;;;;;;;;;;;;;;15.29;nan;101472.53;4974655;28;19922;-94
2023/10/23 06:24:54;;;;;;;;;;;;;;;15.32;nan;101476.59;4977718;28;20345;-93
2023/10/23 06:27:19;;;;;;;;;;;;;;;15.33;nan;101479.03;4964560;28;20006;-93
2023/10/23 06:29:45;;;;;;;;;;;;;;;15.34;nan;101479.84;4973117;28;19962;-93
2023/10/23 06:32:13;;;;;;;;;;;;;;;15.35;nan;101481.47;4981265;28;19919;-93
2023/10/23 06:34:40;;;;;;;;;;;;;;;15.35;nan;101493.06;4975311;28;19974;-94
2023/10/23 06:37:07;;;;;;;;;;;;;;;15.38;nan;101486.34;4975020;28;19921;-93
2023/10/23 06:39:33;;;;;;;;;;;;;;;15.41;nan;101488.50;4975009;28;20492;-94
2023/10/23 06:41:59;;;;;;;;;;;;;;;15.46;nan;101488.56;4977049;28;19917;-93
2023/10/23 06:44:25;;;;;;;;;;;;;;;15.50;nan;101488.84;4973227;28;19972;-93
2023/10/23 06:46:51;;;;;;;;;;;;;;;15.54;nan;101488.03;4983156;28;19922;-94
2023/10/23 06:49:17;;;;;;;;;;;;;;;15.61;nan;101479.72;4974640;28;19918;-93
2023/10/23 06:51:44;;;;;;;;;;;;;;;15.68;nan;101483.00;4974987;28;19918;-94
2023/10/23 06:54:09;;;;;;;;;;;;;;;15.70;nan;101492.47;4974339;28;19926;-93
2023/10/23 06:56:36;;;;;;;;;;;;;;;15.73;nan;101483.00;4973793;28;20130;-94
2023/10/23 06:59:04;;;;;;;;;;;;;;;15.71;nan;101491.38;4975559;28;20008;-93
2023/10/23 07:01:31;;;;;;;;;;;;;;;15.73;nan;101496.53;4980736;28;19940;-93
2023/10/23 07:03:56;;;;;;;;;;;;;;;15.69;nan;101498.94;4977741;28;19925;-93
2023/10/23 07:06:22;;;;;;;;;;;;;;;15.67;nan;101508.41;4973158;28;19922;-94
2023/10/23 07:08:47;;;;;;;;;;;;;;;15.57;nan;101509.13;4976346;28;19945;-93
2023/10/23 07:11:17;;;;;;;;;;;;;;;15.51;nan;101506.66;4981464;28;20272;-94
2023/10/23 07:13:43;;;;;;;;;;;;;;;15.49;nan;101525.03;4975990;28;19929;-93
2023/10/23 07:16:10;;;;;;;;;;;;;;;15.46;nan;101528.25;4976428;28;20176;-94
2023/10/23 07:18:38;;;;;;;;;;;;;;;15.40;nan;101527.38;4974000;28;19957;-93
2023/10/23 07:21:05;;;;;;;;;;;;;;;15.38;nan;101524.13;4974415;28;19930;-94
2023/10/23 07:23:32;;;;;;;;;;;;;;;15.41;nan;101535.22;4976381;28;19956;-94
2023/10/23 07:26:01;;;;;;;;;;;;;;;15.47;nan;101535.28;4975285;28;19969;-93
2023/10/23 07:28:31;;;;;;;;;;;;;;;15.52;nan;101538.00;4973141;28;19935;-93
2023/10/23 07:30:57;;;;;;;;;;;;;;;15.57;nan;101536.13;4973300;28;19918;-93
2023/10/23 07:33:24;;;;;;;;;;;;;;;15.65;nan;101540.25;4976356;28;19921;-93
2023/10/23 07:36:22;;;;;;;;;;;;;;;15.66;nan;101531.91;4980094;28;19921;-93
2023/10/23 07:39:08;;;;;;;;;;;;;;;15.70;nan;101524.88;4972704;28;19964;-92
2023/10/23 07:41:34;;;;;;;;;;;;;;;15.73;nan;101525.44;4980646;28;20098;-93
2023/10/23 07:44:01;;;;;;;;;;;;;;;15.75;nan;101523.28;4975742;28;20086;-93
2023/10/23 07:46:29;;;;;;;;;;;;;;;15.81;nan;101525.75;4977300;28;19917;-93
2023/10/23 07:48:57;;;;;;;;;;;;;;;15.85;nan;101534.13;4970987;28;20477;-92
2023/10/23 07:51:25;;;;;;;;;;;;;;;15.89;nan;101532.53;4972505;28;19926;-92
2023/10/23 07:53:51;;;;;;;;;;;;;;;15.96;nan;101539.31;4977096;28;20349;-92
2023/10/23 07:56:18;;;;;;;;;;;;;;;15.97;nan;101532.00;4972765;28;20031;-92
2023/10/23 07:58:44;;;;;;;;;;;;;;;16.02;nan;101545.56;4983810;28;19922;-94
2023/10/23 08:01:12;;;;;;;;;;;;;;;16.04;nan;101542.59;4973366;28;19981;-92
2023/10/23 08:03:42;;;;;;;;;;;;;;;15.94;nan;101544.16;4974364;28;19952;-93
2023/10/23 08:06:09;;;;;;;;;;;;;;;15.88;nan;101549.81;4977745;28;19926;-93
2023/10/23 08:08:37;;;;;;;;;;;;;;;15.85;nan;101553.06;4977332;28;19961;-94
2023/10/23 08:11:14;;;;;;;;;;;;;;;15.84;nan;101549.53;4975584;28;20001;-94
2023/10/23 08:13:42;;;;;;;;;;;;;;;15.78;nan;101550.56;4976095;28;20029;-93
2023/10/23 08:16:10;;;;;;;;;;;;;;;15.86;nan;101560.91;4973313;28;19922;-93
2023/10/23 08:18:45;;;;;;;;;;;;;;;15.94;nan;101570.38;4978712;28;19926;-92
2023/10/23 08:21:16;;;;;;;;;;;;;;;15.94;nan;101576.59;4975326;28;19922;-91
2023/10/23 08:23:46;;;;;;;;;;;;;;;16.00;nan;101570.16;4973216;28;19926;-92
2023/10/23 08:26:15;;;;;;;;;;;;;;;16.01;nan;101570.97;4977605;28;19918;-93
2023/10/23 08:28:41;;;;;;;;;;;;;;;15.98;nan;101558.78;4975425;28;20386;-92
2023/10/23 08:31:07;;;;;;;;;;;;;;;16.02;nan;101557.19;4958878;28;19922;-93
2023/10/23 08:33:35;;;;;;;;;;;;;;;16.09;nan;101556.94;4973086;28;19926;-92
2023/10/23 08:36:03;;;;;;;;;;;;;;;16.23;nan;101554.53;4979297;28;19918;-92
2023/10/23 08:38:30;;;;;;;;;;;;;;;16.36;nan;101559.47;4973122;28;20685;-92
2023/10/23 08:40:57;;;;;;;;;;;;;;;16.45;nan;101565.16;4975154;28;19956;-92
2023/10/23 08:43:24;;;;;;;;;;;;;;;16.48;nan;101570.81;4971564;28;19969;-92
2023/10/23 08:45:53;;;;;;;;;;;;;;;16.46;nan;101562.16;4975206;28;19921;-94
2023/10/23 08:48:21;;;;;;;;;;;;;;;16.49;nan;101569.75;4975269;28;19918;-92
2023/10/23 08:50:52;;;;;;;;;;;;;;;16.54;nan;101580.59;4979340;28;19929;-92
2023/10/23 08:53:22;;;;;;;;;;;;;;;16.55;nan;101576.81;4977136;28;19922;-94
2023/10/23 08:55:51;;;;;;;;;;;;;;;16.59;nan;101571.66;4979851;28;19922;-94
2023/10/23 08:58:19;;;;;;;;;;;;;;;16.59;nan;101579.78;4978128;28;19925;-94
2023/10/23 09:00:46;;;;;;;;;;;;;;;16.66;nan;101577.63;4975028;28;19930;-95
2023/10/23 09:03:16;;;;;;;;;;;;;;;16.68;nan;101580.91;4975967;28;19933;-92
2023/10/23 09:05:43;;;;;;;;;;;;;;;16.77;nan;101573.88;4976398;28;20000;-92
2023/10/23 09:08:13;;;;;;;;;;;;;;;16.89;nan;101570.94;4979805;28;19922;-92
2023/10/23 09:10:57;;;;;;;;;;;;;;;16.96;nan;101576.88;4978992;28;19968;-93
2023/10/23 09:13:26;;;;;;;;;;;;;;;17.01;nan;101568.75;4976391;28;19922;-93
2023/10/23 09:16:04;;;;;;;;;;;;;;;17.11;nan;101567.94;4976548;28;19929;-93
2023/10/23 09:18:33;;;;;;;;;;;;;;;17.25;nan;101574.44;4980172;28;19929;-93
2023/10/23 09:20:59;;;;;;;;;;;;;;;17.31;nan;101572.53;4977906;28;19926;-93
2023/10/23 09:23:29;;;;;;;;;;;;;;;17.38;nan;101573.84;4973047;28;19933;-92
2023/10/23 09:25:58;;;;;;;;;;;;;;;17.49;nan;101580.91;4982458;28;19926;-92
2023/10/23 09:28:28;;;;;;;;;;;;;;;17.67;nan;101571.38;4980669;28;19925;-93
2023/10/23 09:30:53;;;;;;;;;;;;;;;17.73;nan;101575.72;4977973;28;19985;-93
2023/10/23 09:33:19;;;;;;;;;;;;;;;17.85;nan;101577.31;4976404;28;20025;-92
2023/10/23 09:35:45;;;;;;;;;;;;;;;17.98;nan;101582.16;4978396;28;20310;-92
2023/10/23 09:38:16;;;;;;;;;;;;;;;18.06;nan;101578.84;4976692;28;20000;-92
2023/10/23 09:40:44;;;;;;;;;;;;;;;18.16;nan;101583.44;4977859;28;19965;-92
2023/10/23 09:43:11;;;;;;;;;;;;;;;18.15;nan;101579.91;4979373;28;20009;-93
2023/10/23 09:45:37;;;;;;;;;;;;;;;18.21;nan;101578.78;4978943;28;19929;-93
2023/10/23 09:48:04;;;;;;;;;;;;;;;18.32;nan;101582.28;4979293;28;19921;-92
2023/10/23 09:50:31;;;;;;;;;;;;;;;18.33;nan;101584.69;4977538;28;19926;-92
2023/10/23 09:52:57;;;;;;;;;;;;;;;18.40;nan;101579.75;4976839;28;19929;-93
2023/10/23 09:55:28;;;;;;;;;;;;;;;18.46;nan;101572.41;4979060;28;21551;-92
2023/10/23 09:57:54;;;;;;;;;;;;;;;18.57;nan;101573.16;4977980;28;19934;-93
2023/10/23 10:00:22;;;;;;;;;;;;;;;18.65;nan;101570.69;4981033;28;19926;-92
2023/10/23 10:02:55;;;;;;;;;;;;;;;18.74;nan;101557.31;4980830;28;19926;-92
2023/10/23 10:05:38;;;;;;;;;;;;;;;18.80;nan;101561.63;4979781;28;19917;-93
2023/10/23 10:08:11;;;;;;;;;;;;;;;18.85;nan;101567.03;4976835;28;19929;-94
2023/10/23 10:10:38;;;;;;;;;;;;;;;18.92;nan;101559.34;4976591;28;19922;-93
2023/10/23 10:13:04;;;;;;;;;;;;;;;18.96;nan;101568.56;4981024;28;19924;-94
2023/10/23 10:15:33;;;;;;;;;;;;;;;19.00;nan;101566.88;4978317;28;19922;-93
2023/10/23 10:18:03;;;;;;;;;;;;;;;19.01;nan;101563.06;4976049;28;19933;-94
2023/10/23 10:20:31;;;;;;;;;;;;;;;19.01;nan;101563.06;4976858;28;19917;-93
2023/10/23 10:23:07;;;;;;;;;;;;;;;19.04;nan;101559.00;4977923;28;20453;-92
2023/10/23 10:25:45;;;;;;;;;;;;;;;19.17;nan;101568.38;4982393;28;19918;-94
2023/10/23 10:28:14;;;;;;;;;;;;;;;19.29;nan;101552.50;4976382;28;19918;-93
2023/10/23 10:30:50;;;;;;;;;;;;;;;19.39;nan;101555.13;4974472;28;19926;-94
2023/10/23 10:33:24;;;;;;;;;;;;;;;19.51;nan;101557.44;4979374;28;20214;-92
2023/10/23 10:35:52;;;;;;;;;;;;;;;19.71;nan;101553.72;4975875;28;19929;-93
2023/10/23 10:38:20;;;;;;;;;;;;;;;19.91;nan;101553.47;4979905;28;20257;-93
2023/10/23 10:41:01;;;;;;;;;;;;;;;20.16;nan;101541.47;4979416;28;19926;-93
2023/10/23 10:43:33;;;;;;;;;;;;;;;20.42;nan;101540.00;4975577;28;19921;-93
2023/10/23 10:46:14;;;;;;;;;;;;;;;20.55;nan;101533.03;4975030;28;19965;-93
2023/10/23 10:48:49;;;;;;;;;;;;;;;20.65;nan;101524.72;4977593;28;19922;-92
2023/10/23 10:51:23;;;;;;;;;;;;;;;20.77;nan;101530.47;4974796;28;19925;-92
2023/10/23 10:54:00;;;;;;;;;;;;;;;20.81;nan;101528.78;4974544;28;19944;-93
2023/10/23 10:56:27;;;;;;;;;;;;;;;20.87;nan;101529.53;4972745;28;19969;-92
2023/10/23 10:58:55;;;;;;;;;;;;;;;21.00;nan;101527.91;4974459;28;19961;-92
2023/10/23 11:01:24;;;;;;;;;;;;;;;21.12;nan;101539.16;4979560;28;19929;-92
2023/10/23 11:03:52;;;;;;;;;;;;;;;21.18;nan;101527.06;4978243;28;20354;-92
2023/10/23 11:06:18;;;;;;;;;;;;;;;21.31;nan;101523.56;4974979;28;19961;-91
2023/10/23 11:08:46;;;;;;;;;;;;;;;21.50;nan;101528.94;4972237;28;19922;-92
2023/10/23 11:11:12;;;;;;;;;;;;;;;21.68;nan;101533.47;4975952;28;19926;-92
2023/10/23 11:13:40;;;;;;;;;;;;;;;21.78;nan;101528.94;4966324;28;20437;-89
2023/10/23 11:16:24;;;;;;;;;;;;;;;21.86;nan;101525.50;4969737;28;19933;-90
2023/10/23 11:18:57;;;;;;;;;;;;;;;21.96;nan;101531.56;4970679;28;19921;-93
2023/10/23 11:21:23;;;;;;;;;;;;;;;21.94;nan;101522.88;4978117;28;19941;-92
2023/10/23 11:23:49;;;;;;;;;;;;;;;21.92;nan;101525.09;4975326;28;19929;-92
2023/10/23 11:26:18;;;;;;;;;;;;;;;22.09;nan;101527.22;4970258;28;19933;-93
2023/10/23 11:29:04;;;;;;;;;;;;;;;22.27;nan;101514.53;4975834;28;20275;-90
2023/10/23 11:31:35;;;;;;;;;;;;;;;22.26;nan;101519.19;4972674;28;20462;-90
2023/10/23 11:34:09;;;;;;;;;;;;;;;22.17;nan;101520.22;4973507;28;19921;-89
2023/10/23 11:36:37;;;;;;;;;;;;;;;22.08;nan;101527.50;4969964;28;20110;-89
2023/10/23 11:39:25;;;;;;;;;;;;;;;22.01;nan;101517.78;4970954;28;20020;-88
2023/10/23 11:41:56;;;;;;;;;;;;;;;22.02;nan;101524.84;4977536;28;19930;-89
2023/10/23 11:44:31;;;;;;;;;;;;;;;22.00;nan;101518.91;4968718;28;20305;-89
2023/10/23 11:46:58;;;;;;;;;;;;;;;22.08;nan;101522.03;4973729;28;20076;-89
2023/10/23 11:49:28;;;;;;;;;;;;;;;22.12;nan;101534.00;4977807;28;19922;-89
2023/10/23 11:51:56;;;;;;;;;;;;;;;22.29;nan;101525.97;4971537;28;20516;-89
2023/10/23 11:54:30;;;;;;;;;;;;;;;22.46;nan;101525.28;4976568;28;19922;-88
2023/10/23 11:57:12;;;;;;;;;;;;;;;22.58;nan;101526.34;4968987;28;19926;-89
2023/10/23 11:59:39;;;;;;;;;;;;;;;22.69;nan;101528.84;4972393;28;19926;-89
2023/10/23 12:02:09;;;;;;;;;;;;;;;22.77;nan;101533.53;4971721;28;19926;-90
2023/10/23 12:04:35;;;;;;;;;;;;;;;22.71;nan;101532.06;4971863;28;19929;-90
2023/10/23 12:07:04;;;;;;;;;;;;;;;22.61;nan;101530.38;4973912;28;19972;-89
2023/10/23 12:09:31;;;;;;;;;;;;;;;22.55;nan;101521.50;4969572;28;19922;-89
2023/10/23 12:12:05;;;;;;;;;;;;;;;22.44;nan;101522.88;4973620;28;19925;-92
2023/10/23 12:14:31;;;;;;;;;;;;;;;22.29;nan;101524.03;4970513;28;19922;-91
2023/10/23 12:16:57;;;;;;;;;;;;;;;22.07;nan;101528.63;4969519;28;20381;-89
2023/10/23 12:19:24;;;;;;;;;;;;;;;22.00;nan;101521.63;4973456;28;20485;-90
2023/10/23 12:21:55;;;;;;;;;;;;;;;22.07;nan;101523.97;4973318;28;20417;-89
2023/10/23 12:24:24;;;;;;;;;;;;;;;22.05;nan;101523.47;4972999;28;19925;-89
2023/10/23 12:26:55;;;;;;;;;;;;;;;22.08;nan;101522.03;4969995;28;20409;-90
2023/10/23 12:29:22;;;;;;;;;;;;;;;22.11;nan;101527.72;4972336;28;20758;-89
2023/10/23 12:31:48;;;;;;;;;;;;;;;22.09;nan;101529.16;4969139;28;20024;-90
2023/10/23 12:34:16;;;;;;;;;;;;;;;22.06;nan;101525.09;4972578;28;19946;-90
2023/10/23 12:36:47;;;;;;;;;;;;;;;22.06;nan;101522.34;4971677;28;20610;-89
2023/10/23 12:39:12;;;;;;;;;;;;;;;22.17;nan;101522.94;4979880;28;19929;-85
2023/10/23 12:41:40;;;;;;;;;;;;;;;22.26;nan;101518.34;4973543;28;19934;-89
2023/10/23 12:44:15;;;;;;;;;;;;;;;22.35;nan;101527.44;4970847;28;20169;-90
2023/10/23 12:46:46;;;;;;;;;;;;;;;22.36;nan;101518.13;4969751;28;20487;-92
2023/10/23 12:49:12;;;;;;;;;;;;;;;22.44;nan;101525.59;4968548;28;19921;-93
2023/10/23 12:51:38;;;;;;;;;;;;;;;22.57;nan;101529.38;4972257;28;19933;-93
2023/10/23 12:54:14;;;;;;;;;;;;;;;22.68;nan;101519.84;4974740;28;19921;-94
2023/10/23 12:56:53;;;;;;;;;;;;;;;22.86;nan;101518.06;4976645;28;19922;-95
2023/10/23 12:59:21;;;;;;;;;;;;;;;22.73;nan;101518.91;4975366;28;19922;-96
2023/10/23 13:01:46;;;;;;;;;;;;;;;22.65;nan;101519.66;4983841;28;19936;-96
2023/10/23 13:04:13;;;;;;;;;;;;;;;22.69;nan;101520.63;4979892;28;20304;-95
2023/10/23 13:06:40;;;;;;;;;;;;;;;22.64;nan;101516.13;4976926;28;20537;-95